Greensboro, NC

11:05 PM EST on March 01, 2015 (GMT -0500)
Burlington-Alamance Regional | Change Station
CLOSE
Current Station
Airport
Location: Burlington,
Elevation: 617 ft
Nearby Weather Stations

Elev 617 ft 36.05 °N, 79.47 °W | Updated 11 minutes ago

Fog
Fog
35 °F
Feels Like 29 °F
N
7
Wind Variable Wind from WSW

Today
High -- | Low -- °F
--% Chance of Precip.
Yesterday
High -- | Low -- °F
Precip. -- in
6:49 AM 6:13 PM
Waxing Gibbous, 89% visible
Pressure 30.30 in
Visibility 0.8 miles
Clouds
Windchill 29 °F
Dew Point 33 °F
Humidity 92%
Rainfall 0.32 in
Snow Depth Not available.
UV Not available.
Pollen .90 out of 12
Air Quality Not available.
Flu Activity Not available.
METAR KBUY 020354Z AUTO 24006KT 3/4SM BR VV002 02/01 A3029 RMK AO2 SLP261 T00170006

More Conditions Fewer Conditions

Pressure 30.30 in
Visibility 0.8 miles
Clouds
Windchill 29 °F
Dew Point 33 °F
Humidity 92%
Rainfall 0.32 in
Snow Depth Not available.
UV Not available.
Pollen .90 out of 12
Air Quality Not available.
Flu Activity Not available.
METAR KBUY 020354Z AUTO 24006KT 3/4SM BR VV002 02/01 A3029 RMK AO2 SLP261 T00170006

More Conditions Fewer Conditions

10-Day Weather Forecast

Almanac

Astronomy

Mar. 01, 2015 Rise Set
Actual Time
Civil Twilight
Nautical Twilight
Astronomical Twilight
Moon
Length of Visible Light
Length of Day
Tomorrow will be .
, % of the Moon is Illuminated

Today's Extremes

State Highs State Lows

Community

WunderPhotos

Upload Photos

1,801,722 photos uploaded!

WunderBlogs® & News

Nearby

Air Quality

  Air Quality AQ Index Pollutant
Not available.

Snow Depth

Station Depth Elevation

Earthquake Activity

City Distance Mag. Time & Date
Minimum magnitude displayed is 2.5.

Coastal Water Temperatures

Place Temperature

Nearby Weather Stations